Popsquash, Vermont
Current Conditions -  °F | °C
As of 1:35 PM on Monday 26 Jan 2015 (Local Time) from KFSO Reporting Station
Clear Clear  
Wind Chill: -4°   Ceiling: Unl
Heat Index:   Visibility: 10mi
Dew Point: -3°   Wind: 8mph
Humidity: 59%   Direction: 350°N
Pressure: 30.15"   Gusts: NA
Location:  44.9002°N, 73.1493°W
Report Text: KFSO 261835Z AUTO 35007KT 10SM CLR M13/M20 A3015 RMK AO2 T11331197
Loading
Personal Weather Stations






























Interactive Weather Map New forecast layout! Learn more

10-Day Weather Forecast

Advertisements
Track Severe Weather on mobile